Time;durP1;ratioP1;P1;durP2;ratioP2;P2;SDS_P1;SDS_P2;PMS_P1;PMS_P2;Temp;Humidity;BMP_temperature;BMP_pressure;BME280_temperature;BME280_humidity;BME280_pressure;Samples;Min_cycle;Max_cycle;Signal;HPM_P1;HPM_P2
2022/03/24 04:53:07;;;;;;;48.58;28.58;;;;;;;2.02;60.76;101263.53;5966241;27;20158;-88
2022/03/24 04:56:11;;;;;;;52.20;28.10;;;;;;;1.98;61.46;101260.22;5414457;27;33789;-87
2022/03/24 04:59:36;;;;;;;51.03;27.10;;;;;;;2.00;61.99;101260.97;5419378;27;34933;-88
2022/03/24 05:02:39;;;;;;;41.42;27.10;;;;;;;2.07;61.13;101263.22;5360659;33;33638;-88
2022/03/24 05:05:41;;;;;;;55.53;26.92;;;;;;;2.07;61.68;101266.72;5361508;33;33713;-88
2022/03/24 05:08:44;;;;;;;46.35;26.30;;;;;;;2.20;62.53;101269.44;5362153;33;34591;-88
2022/03/24 05:11:47;;;;;;;53.13;26.80;;;;;;;2.24;61.05;101263.81;5361839;33;34414;-88
2022/03/24 05:14:50;;;;;;;54.28;28.40;;;;;;;2.32;60.36;101259.78;5361844;33;33862;-88
2022/03/24 05:17:53;;;;;;;48.63;27.60;;;;;;;2.46;59.68;101263.22;5362106;33;34720;-88
2022/03/24 05:20:56;;;;;;;51.50;28.42;;;;;;;2.63;61.10;101259.44;5362037;33;33659;-88
2022/03/24 05:24:00;;;;;;;45.88;26.85;;;;;;;2.74;61.78;101266.66;5363144;33;33885;-89
2022/03/24 05:27:05;;;;;;;50.53;29.27;;;;;;;2.92;59.50;101252.06;5380673;27;34331;-87
2022/03/24 05:30:09;;;;;;;47.28;27.02;;;;;;;3.03;58.65;101254.00;5364862;33;34548;-87
2022/03/24 05:33:13;;;;;;;52.08;29.15;;;;;;;3.27;58.29;101259.38;5358027;33;35173;-88
2022/03/24 05:36:16;;;;;;;53.90;29.83;;;;;;;3.50;57.84;101254.22;5366235;33;35528;-87
2022/03/24 05:39:33;;;;;;;53.28;28.98;;;;;;;3.64;56.67;101244.28;5420761;27;35552;31
2022/03/24 05:42:39;;;;;;;47.53;28.45;;;;;;;3.93;57.89;101246.63;5388753;27;33786;-88
2022/03/24 05:49:34;;;;;;;53.13;29.63;;;;;;;4.47;55.42;101248.75;5425173;27;34997;-87
2022/03/24 05:56:30;;;;;;;57.35;31.40;;;;;;;4.89;52.19;101241.09;5360349;33;33264;-87
2022/03/24 05:59:33;;;;;;;59.40;32.40;;;;;;;5.16;51.59;101240.72;5376648;27;33599;-87
2022/03/24 06:02:36;;;;;;;59.85;33.40;;;;;;;5.54;52.35;101235.97;5408671;27;33550;-89
2022/03/24 06:05:40;;;;;;;55.90;33.55;;;;;;;6.00;50.03;101233.09;5394434;27;34567;-88
2022/03/24 06:08:43;;;;;;;68.05;33.17;;;;;;;6.24;49.74;101240.03;5366581;33;33894;-88
2022/03/24 06:11:47;;;;;;;58.90;34.05;;;;;;;6.42;49.36;101240.31;5363751;33;34115;-88
2022/03/24 06:14:51;;;;;;;57.62;29.80;;;;;;;6.52;49.04;101236.75;5366712;33;34436;-88
2022/03/24 06:17:54;;;;;;;63.55;34.20;;;;;;;6.80;47.42;101240.56;5363665;33;33745;-88
2022/03/24 06:20:59;;;;;;;59.25;31.52;;;;;;;7.01;47.44;101234.31;5363611;33;34129;-88
2022/03/24 06:24:03;;;;;;;62.85;32.13;;;;;;;7.40;46.45;101234.47;5363205;27;35313;-89
2022/03/24 06:27:17;;;;;;;59.83;33.83;;;;;;;7.69;45.54;101231.88;5326862;31;20107;-87
2022/03/24 06:30:41;;;;;;;50.08;25.60;;;;;;;7.94;44.47;101220.63;5377784;27;34077;-87
2022/03/24 06:33:44;;;;;;;48.60;24.15;;;;;;;8.20;43.84;101229.97;5344193;33;34189;-87
2022/03/24 06:36:47;;;;;;;53.10;22.70;;;;;;;8.50;43.66;101223.59;5351678;33;33837;-87
2022/03/24 06:39:49;;;;;;;47.72;23.45;;;;;;;8.72;43.26;101225.97;5346841;33;34001;-87
2022/03/24 06:42:53;;;;;;;49.78;24.60;;;;;;;8.79;42.70;101229.75;5351015;33;33949;-87
2022/03/24 06:45:55;;;;;;;54.17;26.77;;;;;;;8.93;42.84;101225.75;5348006;33;34331;-87
2022/03/24 06:49:00;;;;;;;50.42;26.35;;;;;;;9.15;42.77;101221.84;5356937;33;34352;-88
2022/03/24 06:52:02;;;;;;;51.75;25.23;;;;;;;9.37;42.99;101227.84;5408497;27;35094;-88
2022/03/24 06:55:07;;;;;;;56.45;28.83;;;;;;;9.73;41.31;101212.63;5412420;27;33175;-88
2022/03/24 06:58:10;;;;;;;60.78;27.42;;;;;;;10.03;40.68;101219.47;5369100;33;35301;-88
2022/03/24 07:01:13;;;;;;;47.80;26.20;;;;;;;10.37;39.69;101221.50;5360410;33;35100;-88
2022/03/24 07:04:17;;;;;;;47.53;24.98;;;;;;;10.52;38.52;101214.56;5374173;27;35244;-87
2022/03/24 07:07:20;;;;;;;50.03;26.58;;;;;;;10.69;37.74;101212.00;5363525;33;34940;-88
2022/03/24 07:10:23;;;;;;;43.50;25.23;;;;;;;10.95;37.08;101206.59;5392067;27;32626;-87
2022/03/24 07:13:26;;;;;;;41.72;25.12;;;;;;;11.19;37.33;101203.19;5362761;33;33983;-88
2022/03/24 07:16:29;;;;;;;42.33;25.45;;;;;;;11.54;35.83;101202.13;5363521;33;33567;-89
2022/03/24 07:19:32;;;;;;;47.20;24.27;;;;;;;11.72;35.22;101197.44;5366770;33;35069;-88
2022/03/24 07:22:36;;;;;;;54.13;25.23;;;;;;;12.06;34.12;101201.94;5366075;33;34759;-89
2022/03/24 07:25:42;;;;;;;62.55;24.83;;;;;;;12.34;33.54;101191.62;5368871;33;34432;-88
2022/03/24 07:28:44;;;;;;;42.60;23.52;;;;;;;12.69;34.23;101192.28;5366119;33;33548;-88
2022/03/24 07:31:48;;;;;;;41.47;22.62;;;;;;;12.85;32.14;101184.16;5364257;33;34221;-88
2022/03/24 07:34:52;;;;;;;38.22;24.02;;;;;;;13.19;32.24;101183.00;5362574;33;34654;-88
2022/03/24 07:37:55;;;;;;;39.67;23.10;;;;;;;13.50;31.78;101182.22;5361722;33;34597;-88
2022/03/24 07:40:58;;;;;;;39.90;22.37;;;;;;;13.81;30.73;101174.94;5361680;33;34597;-88
2022/03/24 07:44:02;;;;;;;39.05;21.15;;;;;;;14.07;31.07;101177.28;5362437;33;33991;-89
2022/03/24 07:47:04;;;;;;;35.40;19.87;;;;;;;14.43;29.78;101181.22;5367205;33;33931;-88
2022/03/24 07:50:08;;;;;;;35.42;19.15;;;;;;;14.65;28.30;101182.22;5365797;33;33800;-88
2022/03/24 07:53:14;;;;;;;28.95;16.70;;;;;;;15.02;27.75;101175.87;5373750;33;35001;-88
2022/03/24 07:56:21;;;;;;;32.72;17.42;;;;;;;15.16;26.53;101175.03;5380898;27;34913;-88
2022/03/24 07:59:25;;;;;;;27.98;16.58;;;;;;;15.30;27.28;101172.50;5367726;33;33871;-88
2022/03/24 08:02:28;;;;;;;24.50;15.13;;;;;;;15.51;26.09;101177.16;5369356;33;33548;-88
2022/03/24 08:05:32;;;;;;;35.08;15.27;;;;;;;15.84;25.17;101170.22;5371907;33;34739;-88
2022/03/24 08:08:35;;;;;;;25.08;13.52;;;;;;;16.28;24.91;101171.91;5368114;33;34142;-89
2022/03/24 08:11:40;;;;;;;22.67;13.02;;;;;;;16.49;22.75;101168.31;5353396;33;33637;-88
2022/03/24 08:14:58;;;;;;;20.62;11.95;;;;;;;16.68;22.57;101169.50;5359513;27;35394;31
2022/03/24 08:18:09;;;;;;;20.58;11.40;;;;;;;16.89;22.07;101168.63;5344003;33;33399;-88
2022/03/24 08:21:12;;;;;;;17.35;10.60;;;;;;;16.96;21.34;101164.06;5348160;33;34230;-88
2022/03/24 08:24:17;;;;;;;18.42;10.88;;;;;;;17.05;20.98;101156.56;5385551;27;33999;-87
2022/03/24 08:27:22;;;;;;;21.37;10.82;;;;;;;17.16;21.16;101158.72;5382855;33;34980;-88
2022/03/24 08:30:25;;;;;;;14.27;9.57;;;;;;;17.40;20.24;101156.50;5432876;27;34200;-89
2022/03/24 08:33:28;;;;;;;15.60;9.40;;;;;;;17.63;19.52;101164.34;5375124;33;34433;-88
2022/03/24 08:36:31;;;;;;;15.10;8.95;;;;;;;17.76;19.51;101158.09;5362807;33;33818;-89
2022/03/24 08:39:34;;;;;;;17.45;9.45;;;;;;;17.97;19.38;101152.50;5364145;33;34545;-87
2022/03/24 08:42:40;;;;;;;18.35;9.23;;;;;;;17.99;19.22;101155.00;5370237;33;34197;-88
2022/03/24 08:45:43;;;;;;;20.20;9.98;;;;;;;18.13;19.28;101162.16;5376135;33;34424;-88
2022/03/24 08:48:46;;;;;;;16.92;9.75;;;;;;;18.26;19.16;101158.59;5367018;33;34285;-88
2022/03/24 08:51:49;;;;;;;14.73;8.95;;;;;;;18.30;18.80;101163.41;5365336;33;308322;-88
2022/03/24 08:54:54;;;;;;;18.37;9.38;;;;;;;18.27;18.54;101160.28;5414203;27;35278;-87
2022/03/24 08:57:58;;;;;;;15.30;9.48;;;;;;;18.40;18.53;101151.25;5359092;33;33630;-87
2022/03/24 09:01:00;;;;;;;13.93;8.90;;;;;;;18.32;18.56;101152.31;5341432;33;34657;-87
2022/03/24 09:04:03;;;;;;;15.68;9.60;;;;;;;18.44;18.43;101153.34;5350121;33;34406;-87
2022/03/24 09:07:11;;;;;;;14.25;8.98;;;;;;;18.51;18.09;101145.16;5345009;33;33836;-88
2022/03/24 09:10:15;;;;;;;15.20;8.50;;;;;;;18.57;18.04;101149.75;5343960;33;33959;-87
2022/03/24 09:13:18;;;;;;;14.25;8.75;;;;;;;18.74;18.08;101145.56;5350876;33;33808;-88
2022/03/24 09:16:21;;;;;;;17.35;9.02;;;;;;;18.82;17.60;101140.97;5353937;33;34489;-88
2022/03/24 09:19:24;;;;;;;14.98;8.88;;;;;;;18.82;17.98;101149.16;5358471;33;33924;-88
2022/03/24 09:22:27;;;;;;;17.40;8.82;;;;;;;18.85;17.68;101144.09;5350269;33;34959;-88
2022/03/24 09:25:30;;;;;;;12.07;8.57;;;;;;;18.97;17.61;101149.72;5354688;33;33626;-88
2022/03/24 09:28:33;;;;;;;17.27;8.57;;;;;;;19.05;17.43;101148.66;5345489;33;33856;-89
2022/03/24 09:31:36;;;;;;;14.75;9.98;;;;;;;19.16;17.21;101154.28;5351623;33;33955;-88
2022/03/24 09:34:40;;;;;;;16.37;8.98;;;;;;;19.33;17.35;101156.53;5358284;33;33957;-88
2022/03/24 09:37:43;;;;;;;13.13;8.32;;;;;;;19.32;17.46;101152.13;5338294;33;32734;-88
2022/03/24 09:40:46;;;;;;;14.93;8.45;;;;;;;19.53;17.25;101143.59;5340352;33;34436;-87
2022/03/24 09:43:50;;;;;;;15.05;8.82;;;;;;;19.65;17.03;101141.87;5342547;33;33684;-88
2022/03/24 09:46:53;;;;;;;15.88;9.50;;;;;;;19.69;17.25;101142.31;5344529;33;34417;-89
2022/03/24 09:49:57;;;;;;;13.77;9.07;;;;;;;19.84;17.12;101142.00;5344665;33;33921;-90
2022/03/24 09:53:01;;;;;;;17.70;9.05;;;;;;;19.76;16.99;101134.06;5345272;33;35275;-86
2022/03/24 09:56:04;;;;;;;22.67;8.95;;;;;;;19.81;16.80;101142.44;5346465;33;33930;-87
2022/03/24 09:59:09;;;;;;;16.23;8.90;;;;;;;19.53;16.76;101149.06;5344887;33;35713;-86
2022/03/24 10:02:12;;;;;;;13.10;8.32;;;;;;;19.66;16.96;101140.84;5341970;33;34050;-90
2022/03/24 10:05:18;;;;;;;15.18;8.57;;;;;;;19.93;16.77;101136.03;5344028;33;35066;-90
2022/03/24 10:08:22;;;;;;;16.23;8.40;;;;;;;19.82;16.44;101134.00;5341881;33;34118;-91
2022/03/24 10:11:26;;;;;;;13.62;7.95;;;;;;;19.79;16.60;101128.16;5341592;33;33922;-87
2022/03/24 10:14:29;;;;;;;18.37;8.70;;;;;;;19.81;16.32;101135.09;5351345;33;33918;-87
2022/03/24 10:17:34;;;;;;;13.18;8.15;;;;;;;20.24;16.57;101130.75;5344973;33;34215;-87
2022/03/24 10:20:37;;;;;;;18.75;8.10;;;;;;;20.46;16.39;101123.00;5343014;33;33706;-87
2022/03/24 10:23:44;;;;;;;13.80;8.15;;;;;;;20.61;15.92;101120.75;5331229;33;32642;-87
2022/03/24 10:27:00;;;;;;;15.98;8.02;;;;;;;20.72;15.69;101117.28;5343188;33;34212;-87
2022/03/24 10:30:09;;;;;;;10.68;8.07;;;;;;;20.75;15.78;101121.47;5335783;33;34500;-86
2022/03/24 10:33:39;;;;;;;11.15;7.25;;;;;;;20.92;15.59;101117.06;5345515;33;33293;-87
2022/03/24 10:36:42;;;;;;;12.70;7.57;;;;;;;21.05;15.51;101116.88;5344167;33;33530;-86
2022/03/24 10:40:02;;;;;;;17.58;8.88;;;;;;;21.09;15.30;101114.56;5353477;33;33846;-86
2022/03/24 10:43:22;;;;;;;13.65;8.02;;;;;;;21.08;15.52;101115.59;5348066;33;34071;-86
2022/03/24 10:46:28;;;;;;;12.13;7.65;;;;;;;21.14;15.23;101105.63;5351770;33;34031;-87
2022/03/24 10:49:31;;;;;;;12.77;7.85;;;;;;;21.42;15.22;101113.31;5353606;33;33875;-87
2022/03/24 10:52:35;;;;;;;12.15;8.60;;;;;;;21.60;15.17;101113.25;5344228;33;33917;-87
2022/03/24 10:55:44;;;;;;;15.02;8.77;;;;;;;21.51;15.31;101104.53;5344329;33;33710;-87
2022/03/24 10:58:54;;;;;;;19.60;10.00;;;;;;;21.42;15.97;101099.62;5342713;33;33532;-88
2022/03/24 11:01:58;;;;;;;18.77;9.15;;;;;;;21.68;15.80;101104.72;5342384;33;34357;-87
2022/03/24 11:05:02;;;;;;;14.90;10.00;;;;;;;21.72;16.09;101094.09;5351232;33;34193;-91
2022/03/24 11:08:08;;;;;;;16.95;9.80;;;;;;;21.84;15.71;101102.38;5343836;33;33524;-92
2022/03/24 11:11:14;;;;;;;14.60;10.50;;;;;;;22.42;15.62;101096.97;5344115;33;33486;-88
2022/03/24 11:14:17;;;;;;;16.73;9.77;;;;;;;22.92;15.41;101092.03;5348281;33;33709;-88
2022/03/24 11:17:23;;;;;;;16.92;10.35;;;;;;;23.10;14.46;101089.12;5347134;33;34338;-88
2022/03/24 11:20:39;;;;;;;15.75;10.43;;;;;;;23.10;14.70;101083.63;5355335;33;33714;-87
2022/03/24 11:23:44;;;;;;;16.52;9.27;;;;;;;23.45;14.50;101079.91;5353079;33;34857;-87
2022/03/24 11:26:49;;;;;;;14.90;9.55;;;;;;;23.78;14.33;101076.44;5345064;33;33958;-87
2022/03/24 11:29:52;;;;;;;16.10;9.48;;;;;;;24.34;14.43;101071.00;5338638;33;32746;-87
2022/03/24 11:32:56;;;;;;;15.30;8.68;;;;;;;25.08;13.32;101057.69;5345775;33;34108;-87
2022/03/24 11:36:00;;;;;;;15.88;9.27;;;;;;;25.34;12.94;101058.00;5343794;33;34709;-87
2022/03/24 11:39:05;;;;;;;20.12;9.55;;;;;;;25.89;12.46;101058.81;5343661;33;33919;-87
2022/03/24 11:42:08;;;;;;;13.88;8.70;;;;;;;25.56;12.59;101052.41;5347367;33;33757;-87
2022/03/24 11:45:30;;;;;;;14.75;8.55;;;;;;;26.05;11.70;101045.97;5343981;33;34577;-87
2022/03/24 11:48:39;;;;;;;13.70;9.32;;;;;;;26.16;11.89;101053.22;5343357;33;33722;-87
2022/03/24 11:51:44;;;;;;;14.38;9.15;;;;;;;26.07;12.35;101044.59;5345498;33;35189;-87
2022/03/24 11:54:53;;;;;;;15.82;9.52;;;;;;;26.36;11.71;101036.78;5346997;33;34316;-87
2022/03/24 11:58:00;;;;;;;15.27;9.02;;;;;;;27.09;11.48;101041.56;5349910;33;34646;-87
2022/03/24 12:01:19;;;;;;;16.00;8.48;;;;;;;28.79;10.55;101026.59;5347480;33;34010;-87
2022/03/24 12:04:23;;;;;;;14.07;8.68;;;;;;;28.65;10.16;101032.72;5343464;33;33303;-87
2022/03/24 12:07:27;;;;;;;12.90;8.88;;;;;;;30.28;9.64;101030.81;5360979;33;34975;-87
2022/03/24 12:10:34;;;;;;;15.60;9.88;;;;;;;29.60;9.71;101025.25;5340866;33;33878;-86
2022/03/24 12:13:37;;;;;;;18.58;8.75;;;;;;;29.02;10.16;101025.94;5340501;33;33707;-87
2022/03/24 12:16:51;;;;;;;10.45;7.62;;;;;;;29.15;10.18;101021.69;5341327;33;35370;-87
2022/03/24 12:19:56;;;;;;;13.77;7.93;;;;;;;29.90;9.10;101024.22;5344239;33;34550;-91
2022/03/24 12:22:59;;;;;;;9.95;7.65;;;;;;;30.94;8.53;101015.28;5341308;33;34439;-87
2022/03/24 12:26:10;;;;;;;10.40;7.37;;;;;;;32.01;8.00;101015.56;5341458;33;34206;-87
2022/03/24 12:29:15;;;;;;;12.73;7.65;;;;;;;32.01;8.42;101006.41;5345047;33;33825;-87
2022/03/24 12:32:28;;;;;;;9.77;7.43;;;;;;;30.99;8.88;101019.94;5346096;33;34621;-87
2022/03/24 12:35:45;;;;;;;14.70;7.90;;;;;;;31.46;8.29;101011.78;5343815;33;33906;-88
2022/03/24 12:38:55;;;;;;;11.55;7.95;;;;;;;31.18;8.51;101006.87;5350427;33;33057;-88
2022/03/24 12:42:14;;;;;;;13.27;8.40;;;;;;;32.17;8.41;100998.56;5345033;33;36032;-87
2022/03/24 12:45:26;;;;;;;15.57;7.97;;;;;;;32.70;7.94;100998.06;5344489;33;34031;-87
2022/03/24 12:48:41;;;;;;;9.23;7.68;;;;;;;33.42;7.91;100994.50;5342350;33;34679;-87
2022/03/24 12:51:57;;;;;;;11.90;8.20;;;;;;;34.31;7.53;100989.94;5343453;33;34568;-87
2022/03/24 12:55:00;;;;;;;16.87;8.00;;;;;;;34.04;7.50;100991.00;5344701;33;34586;-87
2022/03/24 12:58:04;;;;;;;10.98;7.72;;;;;;;32.85;8.14;100989.37;5342644;33;34340;-87
2022/03/24 13:01:08;;;;;;;9.82;7.53;;;;;;;32.99;7.92;100988.53;5343748;33;34403;-87
2022/03/24 13:04:11;;;;;;;11.23;7.22;;;;;;;34.83;7.07;100976.13;5344416;33;34701;-86
2022/03/24 13:07:19;;;;;;;8.77;7.40;;;;;;;34.45;7.30;100979.47;5342610;33;34740;-87
2022/03/24 13:10:24;;;;;;;12.48;6.40;;;;;;;34.44;6.88;100972.25;5344152;33;34425;-88
2022/03/24 13:13:28;;;;;;;7.95;5.22;;;;;;;34.16;6.71;100976.41;5342433;33;33906;-87
2022/03/24 13:16:31;;;;;;;9.68;5.78;;;;;;;34.13;6.30;100979.84;5342159;33;34030;-90
2022/03/24 13:19:35;;;;;;;8.13;5.72;;;;;;;35.83;5.80;100977.09;5349996;33;34828;-91
2022/03/24 13:22:38;;;;;;;9.57;6.22;;;;;;;35.42;5.87;100979.31;5346849;33;35132;-91
2022/03/24 13:25:44;;;;;;;6.87;5.80;;;;;;;36.31;5.80;100964.72;5351327;33;34136;-87
2022/03/24 13:28:54;;;;;;;7.47;5.97;;;;;;;36.44;5.69;100974.88;5349047;33;34315;-87
2022/03/24 13:32:15;;;;;;;12.13;6.07;;;;;;;34.81;6.52;100956.06;5345755;33;34898;-87
2022/03/24 13:35:21;;;;;;;6.78;5.85;;;;;;;35.87;5.91;100953.66;5335478;33;33910;-87
2022/03/24 13:38:25;;;;;;;10.85;5.62;;;;;;;36.94;5.68;100950.78;5344288;33;32612;-87
2022/03/24 13:41:30;;;;;;;5.95;5.32;;;;;;;35.17;6.42;100954.94;5345641;33;34358;-87
2022/03/24 13:44:35;;;;;;;8.02;5.57;;;;;;;36.05;5.68;100943.25;5344668;33;32742;-87
2022/03/24 13:47:43;;;;;;;11.85;5.40;;;;;;;36.60;5.71;100944.28;5345383;33;34241;-88
2022/03/24 13:51:11;;;;;;;6.50;4.82;;;;;;;36.70;5.73;100932.66;5344363;33;32606;-87
2022/03/24 13:54:20;;;;;;;8.55;5.20;;;;;;;36.45;5.82;100930.84;5344425;33;33637;-87
2022/03/24 13:57:27;;;;;;;6.47;4.60;;;;;;;34.90;6.01;100931.72;5342175;33;33891;-88
2022/03/24 14:00:39;;;;;;;6.18;4.62;;;;;;;35.79;5.79;100922.88;5347969;33;33908;-88
2022/03/24 14:03:45;;;;;;;7.78;4.97;;;;;;;36.38;5.52;100924.94;5347158;33;33927;-87
2022/03/24 14:07:08;;;;;;;10.10;5.07;;;;;;;35.74;5.89;100915.47;5352145;33;34782;-88
2022/03/24 14:10:11;;;;;;;10.00;4.97;;;;;;;34.89;6.46;100920.84;5348251;33;34469;-88
2022/03/24 14:13:21;;;;;;;7.60;4.87;;;;;;;34.68;6.14;100912.28;5348179;33;33464;-88
2022/03/24 14:16:31;;;;;;;;;;;;;;;34.72;5.90;100914.09;5349048;33;34930;-91
2022/03/24 14:19:34;;;;;;;6.75;4.40;;;;;;;34.54;5.94;100895.59;5345848;33;34823;-87
2022/03/24 14:22:47;;;;;;;11.10;4.35;;;;;;;33.96;6.08;100902.31;5344201;33;33570;-87
2022/03/24 14:25:51;;;;;;;5.78;4.32;;;;;;;33.43;6.44;100895.63;5344505;33;34073;-88
2022/03/24 14:28:54;;;;;;;6.07;4.43;;;;;;;33.21;6.56;100904.87;5343553;33;33941;-88
2022/03/24 14:32:25;;;;;;;6.55;4.20;;;;;;;32.53;7.24;100895.59;5344649;33;32582;-88
2022/03/24 14:35:29;;;;;;;8.98;4.45;;;;;;;33.75;6.67;100894.53;5332517;33;34056;-87
2022/03/24 14:38:37;;;;;;;8.63;5.12;;;;;;;32.72;6.93;100889.84;5338391;33;33862;-86
2022/03/24 14:41:56;;;;;;;7.43;4.75;;;;;;;32.34;7.20;100892.06;5341662;33;33696;-88
2022/03/24 14:44:59;;;;;;;10.70;5.30;;;;;;;30.39;8.11;100891.75;5343128;33;34035;-87
2022/03/24 14:48:05;;;;;;;9.63;5.28;;;;;;;28.88;8.94;100891.81;5348128;33;34725;-88
2022/03/24 14:51:29;;;;;;;10.93;5.40;;;;;;;26.23;10.46;100890.97;5344214;33;33891;-88
2022/03/24 14:54:52;;;;;;;17.62;6.20;;;;;;;24.83;11.73;100881.09;5346638;33;34455;-86
2022/03/24 14:57:55;;;;;;;11.73;5.75;;;;;;;23.71;12.53;100880.53;5352752;33;35595;-86
2022/03/24 15:01:19;;;;;;;9.98;6.12;;;;;;;22.81;13.17;100883.12;5352925;33;35257;-91
2022/03/24 15:04:41;;;;;;;12.60;6.12;;;;;;;22.44;13.52;100890.13;5342818;33;34091;-86
2022/03/24 15:07:47;;;;;;;14.43;6.47;;;;;;;22.09;14.13;100880.87;5346942;33;33685;-86
2022/03/24 15:11:11;;;;;;;10.07;5.85;;;;;;;21.54;14.19;100886.78;5346458;33;35339;-87
2022/03/24 15:17:36;;;;;;;8.50;5.53;;;;;;;21.11;14.22;100879.66;5343746;33;33167;-87
2022/03/24 15:20:39;;;;;;;13.50;6.07;;;;;;;21.01;14.47;100873.94;5334741;33;34921;-87
2022/03/24 15:23:42;;;;;;;9.10;5.90;;;;;;;20.89;14.43;100881.31;5349349;33;34596;-87
2022/03/24 15:26:45;;;;;;;16.30;6.43;;;;;;;20.59;14.59;100876.66;5346818;33;33239;-87
2022/03/24 15:29:48;;;;;;;10.75;5.72;;;;;;;20.44;14.93;100874.31;5359481;33;35814;-87
2022/03/24 15:32:52;;;;;;;8.85;5.47;;;;;;;20.33;14.91;100878.66;5352256;33;33788;-87
2022/03/24 15:35:55;;;;;;;11.43;5.87;;;;;;;20.26;14.70;100877.06;5345821;33;33730;-87
2022/03/24 15:38:59;;;;;;;9.57;5.85;;;;;;;20.15;14.81;100873.19;5343840;33;33891;-87
2022/03/24 15:42:04;;;;;;;8.23;5.45;;;;;;;20.05;14.87;100890.16;5341970;33;33996;-87
2022/03/24 15:45:12;;;;;;;13.02;5.68;;;;;;;19.98;14.93;100889.41;5349965;33;33813;-87
2022/03/24 15:48:16;;;;;;;10.65;5.75;;;;;;;19.93;15.18;100884.59;5349699;33;33967;-87
2022/03/24 15:51:20;;;;;;;9.70;5.68;;;;;;;19.78;15.23;100883.31;5343717;33;34195;-87
2022/03/24 15:54:23;;;;;;;12.00;6.40;;;;;;;19.70;15.41;100873.50;5356255;33;33555;-87
2022/03/24 15:57:26;;;;;;;9.00;5.90;;;;;;;19.58;15.28;100887.03;5342440;33;33501;-87
2022/03/24 16:00:31;;;;;;;12.25;5.72;;;;;;;19.47;15.45;100885.88;5341781;33;33882;-87
2022/03/24 16:03:35;;;;;;;8.32;5.47;;;;;;;19.43;15.49;100890.13;5338234;33;33914;-87
2022/03/24 16:06:38;;;;;;;9.98;5.93;;;;;;;19.30;15.53;100884.75;5341500;33;33542;-87
2022/03/24 16:09:41;;;;;;;13.80;6.12;;;;;;;19.23;15.67;100890.28;5343347;33;34113;-86
2022/03/24 16:12:45;;;;;;;9.55;6.32;;;;;;;19.17;15.76;100891.19;5342969;33;35143;-87
2022/03/24 16:15:50;;;;;;;11.00;6.53;;;;;;;19.12;15.90;100890.16;5343505;33;35180;-87
2022/03/24 16:18:53;;;;;;;10.43;6.62;;;;;;;19.01;16.08;100899.91;5356987;33;34335;-90
2022/03/24 16:21:58;;;;;;;11.73;6.15;;;;;;;18.95;16.17;100896.19;5356438;33;35466;-88
2022/03/24 16:25:03;;;;;;;12.27;6.32;;;;;;;18.84;16.51;100896.03;5345203;33;34157;-87
2022/03/24 16:28:07;;;;;;;10.57;6.55;;;;;;;18.74;16.70;100900.06;5340205;33;34711;-87
2022/03/24 16:31:11;;;;;;;8.43;6.00;;;;;;;18.58;16.84;100901.41;5341206;33;34806;-87
2022/03/24 16:34:14;;;;;;;11.07;7.40;;;;;;;18.50;17.13;100898.09;5351287;33;33811;-87
2022/03/24 16:37:19;;;;;;;10.30;6.80;;;;;;;18.35;17.47;100899.19;5356839;33;34701;-88
2022/03/24 16:40:23;;;;;;;10.77;6.93;;;;;;;18.25;17.32;100900.69;5349589;33;34624;-88
2022/03/24 16:43:27;;;;;;;14.18;7.43;;;;;;;18.17;17.78;100906.41;5345288;33;34701;-88
2022/03/24 16:46:30;;;;;;;11.00;7.30;;;;;;;18.11;17.69;100916.28;5345792;33;34728;-88
2022/03/24 16:49:36;;;;;;;11.02;7.62;;;;;;;17.94;17.92;100907.72;5343417;33;33567;-88
2022/03/24 16:52:42;;;;;;;11.15;7.93;;;;;;;17.78;18.42;100917.16;5344476;33;34283;-88
2022/03/24 16:55:45;;;;;;;12.23;7.62;;;;;;;17.67;18.36;100918.66;5341909;33;33844;-88
2022/03/24 16:58:48;;;;;;;10.57;7.87;;;;;;;17.62;18.68;100931.22;5342857;33;33900;-88
